createdAt,value
2018-09-25T00:00:09.829Z,103478.00
2018-09-25T00:02:44.353Z,103473.00
2018-09-25T00:05:18.879Z,103478.00
2018-09-25T00:07:53.606Z,103483.00
2018-09-25T00:10:28.130Z,103490.00
2018-09-25T00:13:02.610Z,103487.00
2018-09-25T00:15:37.155Z,103484.00
2018-09-25T00:18:11.692Z,103476.00
2018-09-25T00:20:47.552Z,103491.00
2018-09-25T00:23:22.007Z,103496.00
2018-09-25T00:25:56.587Z,103493.00
2018-09-25T00:28:31.267Z,103492.00
2018-09-25T00:31:05.952Z,103488.00
2018-09-25T00:33:40.395Z,103490.00
2018-09-25T00:36:14.811Z,103492.00
2018-09-25T00:38:49.146Z,103481.00
2018-09-25T00:41:23.725Z,103487.00
2018-09-25T00:43:58.364Z,103490.00
2018-09-25T00:46:32.948Z,103496.00
2018-09-25T00:49:07.594Z,103495.00
2018-09-25T00:51:42.204Z,103503.00
2018-09-25T00:54:17.389Z,103498.00
2018-09-25T00:56:51.849Z,103501.00
2018-09-25T00:59:26.411Z,103508.00
2018-09-25T01:02:01.034Z,103508.00
2018-09-25T01:04:35.664Z,103510.00
2018-09-25T01:07:10.260Z,103513.00
2018-09-25T01:09:44.718Z,103517.00
2018-09-25T01:12:19.162Z,103514.00
2018-09-25T01:14:53.785Z,103519.00
2018-09-25T01:17:28.291Z,103517.00
2018-09-25T01:20:02.861Z,103520.00
2018-09-25T01:22:37.403Z,103517.00
2018-09-25T01:25:11.928Z,103520.00
2018-09-25T01:27:47.582Z,103521.00
2018-09-25T01:30:22.252Z,103523.00
2018-09-25T01:32:56.891Z,103520.00
2018-09-25T01:35:31.507Z,103519.00
2018-09-25T01:38:06.211Z,103527.00
2018-09-25T01:40:40.831Z,103523.00
2018-09-25T01:43:15.247Z,103524.00
2018-09-25T01:45:49.834Z,103526.00
2018-09-25T01:48:24.289Z,103525.00
2018-09-25T01:50:59.611Z,103522.00
2018-09-25T01:53:34.280Z,103518.00
2018-09-25T01:56:08.777Z,103524.00
2018-09-25T01:58:43.276Z,103520.00
2018-09-25T02:01:17.663Z,103529.00
2018-09-25T02:03:52.269Z,103527.00
2018-09-25T02:06:26.697Z,103530.00
2018-09-25T02:09:01.221Z,103526.00
2018-09-25T02:11:35.685Z,103527.00
2018-09-25T02:14:10.107Z,103529.00
2018-09-25T02:16:44.690Z,103531.00
2018-09-25T02:19:19.290Z,103534.00
2018-09-25T02:21:53.847Z,103535.00
2018-09-25T02:24:28.466Z,103537.00
2018-09-25T02:27:03.031Z,103538.00
2018-09-25T02:29:37.588Z,103539.00
2018-09-25T02:32:12.082Z,103535.00
2018-09-25T02:34:47.790Z,103537.00
2018-09-25T02:37:22.485Z,103537.00
2018-09-25T02:39:57.051Z,103539.00
2018-09-25T02:42:31.525Z,103541.00
2018-09-25T02:45:06.191Z,103550.00
2018-09-25T02:47:40.817Z,103555.00
2018-09-25T02:50:15.335Z,103562.00
2018-09-25T02:52:50.019Z,103555.00
2018-09-25T02:55:24.526Z,103564.00
2018-09-25T02:57:59.071Z,103563.00
2018-09-25T03:00:33.610Z,103554.00
2018-09-25T03:03:08.243Z,103566.00
2018-09-25T03:05:42.747Z,103568.00
2018-09-25T03:08:17.507Z,103569.00
2018-09-25T03:10:52.155Z,103585.00
2018-09-25T03:13:26.661Z,103583.00
2018-09-25T03:16:01.163Z,103581.00
2018-09-25T03:18:35.778Z,103588.00
2018-09-25T03:21:11.052Z,103592.00
2018-09-25T03:23:45.682Z,103593.00
2018-09-25T03:26:20.106Z,103597.00
2018-09-25T03:28:54.693Z,103602.00
2018-09-25T03:31:29.513Z,103601.00
2018-09-25T03:34:04.143Z,103598.00
2018-09-25T03:36:38.946Z,103599.00
2018-09-25T03:39:14.387Z,103602.00
2018-09-25T03:41:49.212Z,103602.00
2018-09-25T03:44:23.926Z,103606.00
2018-09-25T03:46:58.520Z,103609.00
2018-09-25T03:49:32.964Z,103601.00
2018-09-25T03:52:07.560Z,103612.00
2018-09-25T03:54:41.954Z,103616.00
2018-09-25T03:57:17.662Z,103619.00
2018-09-25T03:59:52.255Z,103615.00
2018-09-25T04:02:26.930Z,103624.00
2018-09-25T04:05:01.443Z,103630.00
2018-09-25T04:07:35.870Z,103630.00
2018-09-25T04:10:10.465Z,103637.00
2018-09-25T04:12:44.966Z,103636.00
2018-09-25T04:15:19.762Z,103640.00
2018-09-25T04:17:54.241Z,103638.00
2018-09-25T04:20:28.792Z,103637.00
2018-09-25T04:23:03.846Z,103644.00
2018-09-25T04:25:38.542Z,103642.00
2018-09-25T04:28:13.315Z,103637.00
2018-09-25T04:30:47.897Z,103642.00
2018-09-25T04:33:22.454Z,103643.00
2018-09-25T04:35:56.898Z,103650.00
2018-09-25T04:38:31.438Z,103653.00
2018-09-25T04:41:05.950Z,103657.00
2018-09-25T04:43:40.414Z,103655.00
2018-09-25T04:46:14.932Z,103650.00
2018-09-25T04:48:49.578Z,103644.00
2018-09-25T04:51:24.211Z,103639.00
2018-09-25T04:53:58.866Z,103646.00
2018-09-25T04:56:33.704Z,103646.00
2018-09-25T04:59:08.372Z,103648.00
2018-09-25T05:01:43.115Z,103648.00
2018-09-25T05:04:17.872Z,103653.00
2018-09-25T05:06:52.360Z,103654.00
2018-09-25T05:09:26.903Z,103643.00
2018-09-25T05:12:01.353Z,103646.00
2018-09-25T05:14:35.865Z,103650.00
2018-09-25T05:17:10.455Z,103659.00
2018-09-25T05:19:44.969Z,103667.00
2018-09-25T05:22:19.454Z,103666.00
2018-09-25T05:24:53.945Z,103669.00
2018-09-25T05:27:28.536Z,103666.00
2018-09-25T05:30:03.074Z,103668.00
2018-09-25T05:32:37.667Z,103673.00
2018-09-25T05:35:12.144Z,103665.00
2018-09-25T05:37:47.863Z,103667.00
2018-09-25T05:40:22.441Z,103670.00
2018-09-25T05:42:56.893Z,103677.00
2018-09-25T05:45:31.443Z,103678.00
2018-09-25T05:48:06.018Z,103682.00
2018-09-25T05:50:40.566Z,103685.00
2018-09-25T05:53:14.889Z,103680.00
2018-09-25T05:55:49.421Z,103677.00
2018-09-25T05:58:23.967Z,103685.00
2018-09-25T06:00:58.545Z,103685.00
2018-09-25T06:03:33.193Z,103677.00
2018-09-25T06:06:07.752Z,103679.00
2018-09-25T06:08:42.289Z,103681.00
2018-09-25T06:11:17.754Z,103685.00
2018-09-25T06:13:52.254Z,103694.00
2018-09-25T06:16:26.906Z,103691.00
2018-09-25T06:19:01.521Z,103690.00
2018-09-25T06:21:36.093Z,103693.00
2018-09-25T06:24:10.578Z,103693.00
2018-09-25T06:26:45.134Z,103698.00
2018-09-25T06:29:19.661Z,103703.00
2018-09-25T06:31:54.203Z,103701.00
2018-09-25T06:34:28.862Z,103700.00
2018-09-25T06:37:03.514Z,103707.00
2018-09-25T06:39:38.118Z,103709.00
2018-09-25T06:42:12.525Z,103714.00
2018-09-25T06:44:48.077Z,103709.00
2018-09-25T06:47:22.767Z,103717.00
2018-09-25T06:49:57.205Z,103717.00
2018-09-25T06:52:31.794Z,103723.00
2018-09-25T06:55:06.488Z,103720.00
2018-09-25T06:57:40.973Z,103726.00
2018-09-25T07:00:15.558Z,103727.00
2018-09-25T07:02:50.205Z,103731.00
2018-09-25T07:05:24.778Z,103730.00
2018-09-25T07:07:59.337Z,103738.00
2018-09-25T07:10:34.010Z,103746.00
2018-09-25T07:13:08.543Z,103750.00
2018-09-25T07:15:43.015Z,103764.00
2018-09-25T07:18:17.996Z,103775.00
2018-09-25T07:20:52.434Z,103769.00
2018-09-25T07:23:27.121Z,103769.00
2018-09-25T07:26:01.646Z,103767.00
2018-09-25T07:28:36.259Z,103767.00
2018-09-25T07:31:10.853Z,103772.00
2018-09-25T07:33:45.438Z,103773.00
2018-09-25T07:36:19.991Z,103780.00
2018-09-25T07:38:54.387Z,103788.00
2018-09-25T07:41:29.006Z,103787.00
2018-09-25T07:44:03.584Z,103785.00
2018-09-25T07:46:38.116Z,103789.00
2018-09-25T07:49:12.681Z,103792.00
2018-09-25T07:51:48.228Z,103796.00
2018-09-25T07:54:22.838Z,103793.00
2018-09-25T07:56:57.302Z,103802.00
2018-09-25T07:59:31.900Z,103814.00
2018-09-25T08:02:06.369Z,103813.00
2018-09-25T08:04:40.849Z,103815.00
2018-09-25T08:07:15.538Z,103813.00
2018-09-25T08:09:49.976Z,103816.00
2018-09-25T08:12:24.392Z,103816.00
2018-09-25T08:14:59.022Z,103820.00
2018-09-25T08:17:33.450Z,103829.00
2018-09-25T08:20:08.077Z,103829.00
2018-09-25T08:22:42.674Z,103827.00
2018-09-25T08:25:18.391Z,103836.00
2018-09-25T08:27:53.011Z,103831.00
2018-09-25T08:30:27.732Z,103836.00
2018-09-25T08:33:02.335Z,103840.00
2018-09-25T08:35:36.913Z,103838.00
2018-09-25T08:38:11.763Z,103845.00
2018-09-25T08:40:46.442Z,103845.00
2018-09-25T08:43:20.955Z,103847.00
2018-09-25T08:45:55.650Z,103850.00
2018-09-25T08:48:30.202Z,103853.00
2018-09-25T08:51:04.998Z,103851.00
2018-09-25T08:53:39.643Z,103850.00
2018-09-25T08:56:14.194Z,103852.00
2018-09-25T08:58:48.786Z,103843.00
2018-09-25T09:01:23.399Z,103848.00
2018-09-25T09:03:57.981Z,103843.00
2018-09-25T09:06:32.738Z,103848.00
2018-09-25T09:09:07.466Z,103852.00
2018-09-25T09:11:41.954Z,103848.00
2018-09-25T09:14:16.595Z,103852.00
2018-09-25T09:16:51.097Z,103852.00
2018-09-25T09:19:25.583Z,103854.00
2018-09-25T09:22:00.258Z,103857.00
2018-09-25T09:24:34.787Z,103864.00
2018-09-25T09:27:09.370Z,103858.00
2018-09-25T09:29:43.874Z,103854.00
2018-09-25T09:32:18.480Z,103854.00
2018-09-25T09:34:52.965Z,103852.00
2018-09-25T09:37:27.472Z,103853.00
2018-09-25T09:40:02.024Z,103857.00
2018-09-25T09:42:36.655Z,103858.00
2018-09-25T09:45:11.301Z,103865.00
2018-09-25T09:47:45.735Z,103861.00
2018-09-25T09:50:20.332Z,103865.00
2018-09-25T09:52:54.737Z,103862.00
2018-09-25T09:55:29.406Z,103869.00
2018-09-25T09:58:04.041Z,103870.00
2018-09-25T10:00:38.429Z,103869.00
2018-09-25T10:03:12.958Z,103867.00
2018-09-25T10:05:48.512Z,103865.00
2018-09-25T10:08:23.102Z,103857.00
2018-09-25T10:11:00.219Z,103863.00
2018-09-25T10:13:36.701Z,103866.00
2018-09-25T10:16:11.292Z,103861.00
2018-09-25T10:18:46.062Z,103859.00
2018-09-25T10:21:20.659Z,103856.00
2018-09-25T10:23:55.272Z,103853.00
2018-09-25T10:26:29.897Z,103864.00
2018-09-25T10:29:04.333Z,103861.00
2018-09-25T10:31:38.780Z,103868.00
2018-09-25T10:34:13.621Z,103865.00
2018-09-25T10:36:48.727Z,103858.00
2018-09-25T10:39:23.352Z,103865.00
2018-09-25T10:41:57.690Z,103861.00
2018-09-25T10:44:32.370Z,103863.00
2018-09-25T10:47:06.940Z,103866.00
2018-09-25T10:49:41.428Z,103860.00
2018-09-25T10:52:15.754Z,103854.00
2018-09-25T10:54:50.398Z,103860.00
2018-09-25T10:57:25.006Z,103862.00
2018-09-25T10:59:59.553Z,103856.00
2018-09-25T11:02:34.011Z,103853.00
2018-09-25T11:05:08.622Z,103852.00
2018-09-25T11:07:43.017Z,103848.00
2018-09-25T11:10:18.661Z,103854.00
2018-09-25T11:12:53.235Z,103850.00
2018-09-25T11:15:27.787Z,103847.00
2018-09-25T11:18:02.225Z,103848.00
2018-09-25T11:20:37.042Z,103850.00
2018-09-25T11:23:11.599Z,103847.00
2018-09-25T11:25:45.971Z,103852.00
2018-09-25T11:28:20.714Z,103853.00
2018-09-25T11:30:55.226Z,103845.00
2018-09-25T11:33:29.670Z,103850.00
2018-09-25T11:36:04.148Z,103854.00
2018-09-25T11:38:38.554Z,103849.00
2018-09-25T11:41:13.070Z,103843.00
2018-09-25T11:43:48.712Z,103844.00
2018-09-25T11:46:23.091Z,103846.00
2018-09-25T11:48:57.789Z,103838.00
2018-09-25T11:51:33.852Z,103843.00
2018-09-25T11:54:08.426Z,103841.00
2018-09-25T11:56:42.912Z,103843.00
2018-09-25T11:59:18.658Z,103849.00
2018-09-25T12:01:53.052Z,103849.00
2018-09-25T12:04:27.718Z,103846.00
2018-09-25T12:07:02.300Z,103842.00
2018-09-25T12:09:36.911Z,103829.00
2018-09-25T12:12:11.500Z,103828.00
2018-09-25T12:14:45.993Z,103825.00
2018-09-25T12:17:20.434Z,103826.00
2018-09-25T12:19:54.961Z,103821.00
2018-09-25T12:22:29.484Z,103821.00
2018-09-25T12:25:04.239Z,103822.00
2018-09-25T12:27:38.728Z,103826.00
2018-09-25T12:30:13.521Z,103822.00
2018-09-25T12:32:48.176Z,103814.00
2018-09-25T12:35:22.562Z,103795.00
2018-09-25T12:37:57.182Z,103789.00
2018-09-25T12:40:31.616Z,103797.00
2018-09-25T12:43:06.231Z,103801.00
2018-09-25T12:45:40.618Z,103805.00
2018-09-25T12:48:15.163Z,103821.00
2018-09-25T12:50:49.775Z,103812.00
2018-09-25T12:53:24.397Z,103809.00
2018-09-25T12:55:58.859Z,103798.00
2018-09-25T12:58:33.329Z,103797.00
2018-09-25T13:01:07.869Z,103788.00
2018-09-25T13:03:42.356Z,103793.00
2018-09-25T13:06:16.985Z,103792.00
2018-09-25T13:08:51.374Z,103798.00
2018-09-25T13:11:25.836Z,103797.00
2018-09-25T13:14:00.271Z,103795.00
2018-09-25T13:16:34.861Z,103793.00
2018-09-25T13:19:09.442Z,103797.00
2018-09-25T13:21:43.870Z,103793.00
2018-09-25T13:24:18.497Z,103790.00
2018-09-25T13:26:53.134Z,103779.00
2018-09-25T13:29:27.740Z,103788.00
2018-09-25T13:32:03.449Z,103781.00
2018-09-25T13:34:37.880Z,103762.00
2018-09-25T13:37:12.422Z,103774.00
2018-09-25T13:39:46.831Z,103782.00
2018-09-25T13:42:21.496Z,103778.00
2018-09-25T13:44:56.074Z,103772.00
2018-09-25T13:47:30.582Z,103767.00
2018-09-25T13:50:05.014Z,103764.00
2018-09-25T13:52:46.553Z,103769.00
2018-09-25T13:55:21.153Z,103764.00
2018-09-25T13:57:55.885Z,103764.00
2018-09-25T14:00:30.325Z,103762.00
2018-09-25T14:03:04.902Z,103764.00
2018-09-25T14:05:39.490Z,103769.00
2018-09-25T14:08:14.110Z,103769.00
2018-09-25T14:10:48.714Z,103770.00
2018-09-25T14:13:23.187Z,103767.00
2018-09-25T14:15:57.597Z,103759.00
2018-09-25T14:18:32.147Z,103754.00
2018-09-25T14:21:06.731Z,103751.00
2018-09-25T14:23:41.343Z,103754.00
2018-09-25T14:26:15.775Z,103756.00
2018-09-25T14:28:50.541Z,103757.00
2018-09-25T14:31:25.984Z,103758.00
2018-09-25T14:34:00.578Z,103755.00
2018-09-25T14:36:35.032Z,103753.00
2018-09-25T14:39:09.702Z,103756.00
2018-09-25T14:41:44.156Z,103755.00
2018-09-25T14:44:18.748Z,103750.00
2018-09-25T14:46:53.300Z,103755.00
2018-09-25T14:49:27.814Z,103746.00
2018-09-25T14:52:02.379Z,103753.00
2018-09-25T14:54:37.025Z,103751.00
2018-09-25T14:57:11.701Z,103753.00
2018-09-25T14:59:46.229Z,103754.00
2018-09-25T15:02:20.758Z,103753.00
2018-09-25T15:04:56.203Z,103749.00
2018-09-25T15:07:30.755Z,103752.00
2018-09-25T15:10:05.239Z,103749.00
2018-09-25T15:12:39.879Z,103754.00
2018-09-25T15:15:14.370Z,103747.00
2018-09-25T15:17:48.964Z,103752.00
2018-09-25T15:20:23.350Z,103758.00
2018-09-25T15:22:57.926Z,103759.00
2018-09-25T15:25:32.478Z,103759.00
2018-09-25T15:28:07.096Z,103762.00
2018-09-25T15:30:41.593Z,103753.00
2018-09-25T15:33:16.149Z,103755.00
2018-09-25T15:35:50.610Z,103755.00
2018-09-25T15:38:26.103Z,103754.00
2018-09-25T15:41:00.582Z,103758.00
2018-09-25T15:43:35.171Z,103753.00
2018-09-25T15:46:09.716Z,103752.00
2018-09-25T15:48:44.374Z,103757.00
2018-09-25T15:51:18.869Z,103758.00
2018-09-25T15:53:53.369Z,103763.00
2018-09-25T15:56:27.881Z,103762.00
2018-09-25T15:59:02.387Z,103761.00
2018-09-25T16:01:36.886Z,103762.00
2018-09-25T16:04:11.571Z,103769.00
2018-09-25T16:06:46.210Z,103772.00
2018-09-25T16:09:20.663Z,103771.00
2018-09-25T16:11:56.209Z,103774.00
2018-09-25T16:14:30.806Z,103773.00
2018-09-25T16:17:05.423Z,103779.00
2018-09-25T16:19:40.039Z,103780.00
2018-09-25T16:22:14.498Z,103783.00
2018-09-25T16:24:48.925Z,103786.00
2018-09-25T16:27:23.421Z,103790.00
2018-09-25T16:29:57.933Z,103786.00
2018-09-25T16:32:32.584Z,103785.00
2018-09-25T16:35:06.970Z,103786.00
2018-09-25T16:37:41.462Z,103782.00
2018-09-25T16:40:15.846Z,103773.00
2018-09-25T16:42:50.343Z,103781.00
2018-09-25T16:45:24.816Z,103774.00
2018-09-25T16:47:59.441Z,103776.00
2018-09-25T16:50:33.953Z,103771.00
2018-09-25T16:53:08.776Z,103766.00
2018-09-25T16:55:43.162Z,103768.00
2018-09-25T16:58:17.687Z,103762.00
2018-09-25T17:00:52.177Z,103753.00
2018-09-25T17:03:26.692Z,103749.00
2018-09-25T17:06:01.237Z,103745.00
2018-09-25T17:08:35.735Z,103735.00
2018-09-25T17:11:10.231Z,103735.00
2018-09-25T17:13:44.619Z,103732.00
2018-09-25T17:16:18.950Z,103721.00
2018-09-25T17:18:53.478Z,103715.00
2018-09-25T17:21:28.029Z,103713.00
2018-09-25T17:24:02.636Z,103703.00
2018-09-25T17:26:37.072Z,103701.00
2018-09-25T17:29:11.858Z,103702.00
2018-09-25T17:31:46.282Z,103702.00
2018-09-25T17:34:20.918Z,103701.00
2018-09-25T17:36:56.457Z,103707.00
2018-09-25T17:39:31.115Z,103715.00
2018-09-25T17:42:05.706Z,103715.00
2018-09-25T17:44:40.302Z,103719.00
2018-09-25T17:47:14.911Z,103718.00
2018-09-25T17:49:49.359Z,103711.00
2018-09-25T17:52:24.054Z,103724.00
2018-09-25T17:54:58.532Z,103721.00
2018-09-25T17:57:33.013Z,103732.00
2018-09-25T18:00:07.585Z,103727.00
2018-09-25T18:02:42.189Z,103733.00
2018-09-25T18:05:16.672Z,103724.00
2018-09-25T18:07:51.316Z,103725.00
2018-09-25T18:10:26.465Z,103732.00
2018-09-25T18:13:01.035Z,103733.00
2018-09-25T18:15:35.564Z,103733.00
2018-09-25T18:18:10.121Z,103734.00
2018-09-25T18:20:44.819Z,103748.00
2018-09-25T18:23:19.366Z,103746.00
2018-09-25T18:25:53.905Z,103743.00
2018-09-25T18:28:28.497Z,103744.00
2018-09-25T18:31:03.137Z,103746.00
2018-09-25T18:33:37.667Z,103737.00
2018-09-25T18:36:12.676Z,103726.00
2018-09-25T18:38:47.212Z,103729.00
2018-09-25T18:44:03.643Z,103737.00
2018-09-25T18:46:38.189Z,103752.00
2018-09-25T18:49:12.585Z,103751.00
2018-09-25T18:51:46.982Z,103754.00
2018-09-25T18:54:21.332Z,103754.00
2018-09-25T18:56:56.805Z,103746.00
2018-09-25T18:59:31.369Z,103744.00
2018-09-25T19:02:05.870Z,103742.00
2018-09-25T19:04:40.893Z,103740.00
2018-09-25T19:07:15.498Z,103739.00
2018-09-25T19:09:50.001Z,103735.00
2018-09-25T19:12:24.443Z,103735.00
2018-09-25T19:14:58.915Z,103733.00
2018-09-25T19:17:33.530Z,103722.00
2018-09-25T19:20:08.086Z,103717.00
2018-09-25T19:22:42.703Z,103728.00
2018-09-25T19:25:17.393Z,103728.00
2018-09-25T19:27:51.961Z,103722.00
2018-09-25T19:30:26.793Z,103720.00
2018-09-25T19:33:01.332Z,103713.00
2018-09-25T19:35:35.902Z,103708.00
2018-09-25T19:38:10.474Z,103699.00
2018-09-25T19:40:44.977Z,103691.00
2018-09-25T19:43:19.565Z,103694.00
2018-09-25T19:45:54.096Z,103697.00
2018-09-25T19:48:28.772Z,103698.00
2018-09-25T19:51:03.199Z,103695.00
2018-09-25T19:53:37.723Z,103693.00
2018-09-25T19:56:12.405Z,103693.00
2018-09-25T19:58:46.894Z,103696.00
2018-09-25T20:01:21.267Z,103700.00
2018-09-25T20:03:56.730Z,103699.00
2018-09-25T20:06:31.281Z,103683.00
2018-09-25T20:09:05.826Z,103686.00
2018-09-25T20:11:40.310Z,103687.00
2018-09-25T20:14:17.549Z,103689.00
2018-09-25T20:16:52.294Z,103696.00
2018-09-25T20:19:27.041Z,103697.00
2018-09-25T20:22:01.593Z,103706.00
2018-09-25T20:24:36.178Z,103707.00
2018-09-25T20:27:10.766Z,103699.00
2018-09-25T20:29:45.414Z,103691.00
2018-09-25T20:32:19.941Z,103688.00
2018-09-25T20:34:54.382Z,103681.00
2018-09-25T20:37:29.014Z,103679.00
2018-09-25T20:40:03.565Z,103684.00
2018-09-25T20:42:38.137Z,103691.00
2018-09-25T20:45:12.746Z,103702.00
2018-09-25T20:47:47.297Z,103697.00
2018-09-25T20:52:47.445Z,103685.00
2018-09-25T20:55:21.969Z,103683.00
2018-09-25T20:57:57.018Z,103681.00
2018-09-25T21:00:31.614Z,103681.00
2018-09-25T21:03:06.186Z,103680.00
2018-09-25T21:05:40.758Z,103675.00
2018-09-25T21:08:15.359Z,103666.00
2018-09-25T21:10:49.999Z,103662.00
2018-09-25T21:13:24.472Z,103669.00
2018-09-25T21:15:58.992Z,103673.00
2018-09-25T21:18:33.588Z,103662.00
2018-09-25T21:21:08.093Z,103655.00
2018-09-25T21:23:42.693Z,103646.00
2018-09-25T21:26:17.127Z,103639.00
2018-09-25T21:28:51.602Z,103631.00
2018-09-25T21:31:27.026Z,103631.00
2018-09-25T21:34:01.557Z,103630.00
2018-09-25T21:36:36.135Z,103629.00
2018-09-25T21:39:13.775Z,103639.00
2018-09-25T21:41:48.859Z,103645.00
2018-09-25T21:44:23.449Z,103641.00
2018-09-25T21:46:57.933Z,103636.00
2018-09-25T21:49:32.451Z,103645.00
2018-09-25T21:52:07.130Z,103644.00
2018-09-25T21:54:41.896Z,103640.00
2018-09-25T21:57:16.494Z,103640.00
2018-09-25T21:59:51.078Z,103641.00
2018-09-25T22:02:25.623Z,103638.00
2018-09-25T22:05:00.178Z,103632.00
2018-09-25T22:07:34.753Z,103625.00
2018-09-25T22:10:09.274Z,103623.00
2018-09-25T22:12:43.813Z,103622.00
2018-09-25T22:15:18.364Z,103615.00
2018-09-25T22:17:52.966Z,103610.00
2018-09-25T22:20:27.433Z,103618.00
2018-09-25T22:23:02.053Z,103614.00
2018-09-25T22:25:36.566Z,103618.00
2018-09-25T22:28:11.105Z,103618.00
2018-09-25T22:30:45.696Z,103618.00
2018-09-25T22:33:20.140Z,103621.00
2018-09-25T22:35:54.639Z,103619.00
2018-09-25T22:38:29.105Z,103615.00
2018-09-25T22:41:03.707Z,103608.00
2018-09-25T22:43:38.239Z,103603.00
2018-09-25T22:46:12.830Z,103602.00
2018-09-25T22:48:47.382Z,103607.00
2018-09-25T22:51:21.799Z,103605.00
2018-09-25T22:53:57.300Z,103592.00
2018-09-25T22:56:31.988Z,103586.00
2018-09-25T22:59:06.596Z,103578.00
2018-09-25T23:01:41.181Z,103578.00
2018-09-25T23:04:15.775Z,103572.00
2018-09-25T23:06:50.366Z,103560.00
2018-09-25T23:09:24.880Z,103559.00
2018-09-25T23:11:59.319Z,103553.00
2018-09-25T23:14:34.188Z,103553.00
2018-09-25T23:17:08.531Z,103551.00
2018-09-25T23:19:43.090Z,103550.00
2018-09-25T23:22:17.644Z,103548.00
2018-09-25T23:24:52.275Z,103545.00
2018-09-25T23:27:27.274Z,103545.00
2018-09-25T23:30:01.805Z,103544.00
2018-09-25T23:32:36.306Z,103552.00
2018-09-25T23:35:10.670Z,103552.00
2018-09-25T23:37:45.287Z,103557.00
2018-09-25T23:40:20.655Z,103549.00
2018-09-25T23:43:02.301Z,103556.00
2018-09-25T23:45:38.726Z,103553.00
2018-09-25T23:48:15.625Z,103543.00
2018-09-25T23:50:50.237Z,103538.00
2018-09-25T23:53:26.795Z,103535.00
2018-09-25T23:56:02.266Z,103532.00
2018-09-25T23:59:07.078Z,103529.00
